sensor_id;sensor_type;location;lat;lon;timestamp;pressure;altitude;pressure_sealevel;temperature;humidity
9139;BME280;4604;48.616;9.548;2022-09-24T00:00:40;96672.72;;;11.27;100.00
9139;BME280;4604;48.616;9.548;2022-09-24T00:03:07;96645.69;;;11.15;100.00
9139;BME280;4604;48.616;9.548;2022-09-24T00:05:37;96662.31;;;11.25;100.00
9139;BME280;4604;48.616;9.548;2022-09-24T00:08:04;96660.66;;;11.24;100.00
9139;BME280;4604;48.616;9.548;2022-09-24T00:10:35;96660.25;;;11.19;100.00
9139;BME280;4604;48.616;9.548;2022-09-24T00:13:02;96659.72;;;11.16;100.00
9139;BME280;4604;48.616;9.548;2022-09-24T00:15:29;96664.00;;;11.17;100.00
9139;BME280;4604;48.616;9.548;2022-09-24T00:17:56;96661.09;;;11.20;100.00
9139;BME280;4604;48.616;9.548;2022-09-24T00:20:23;96661.91;;;11.20;100.00
9139;BME280;4604;48.616;9.548;2022-09-24T00:22:51;96648.72;;;11.20;100.00
9139;BME280;4604;48.616;9.548;2022-09-24T00:25:18;96643.44;;;11.20;100.00
9139;BME280;4604;48.616;9.548;2022-09-24T00:28:02;96627.34;;;11.13;100.00
9139;BME280;4604;48.616;9.548;2022-09-24T00:30:29;96641.75;;;11.19;100.00
9139;BME280;4604;48.616;9.548;2022-09-24T00:32:57;96636.31;;;11.21;100.00
9139;BME280;4604;48.616;9.548;2022-09-24T00:35:23;96634.81;;;11.18;100.00
9139;BME280;4604;48.616;9.548;2022-09-24T00:37:52;96637.16;;;11.21;100.00
9139;BME280;4604;48.616;9.548;2022-09-24T00:40:18;96630.91;;;11.22;100.00
9139;BME280;4604;48.616;9.548;2022-09-24T00:42:46;96630.22;;;11.20;100.00
9139;BME280;4604;48.616;9.548;2022-09-24T00:45:12;96621.75;;;11.17;100.00
9139;BME280;4604;48.616;9.548;2022-09-24T00:47:40;96621.75;;;11.17;100.00
9139;BME280;4604;48.616;9.548;2022-09-24T00:50:13;96618.16;;;11.18;100.00
9139;BME280;4604;48.616;9.548;2022-09-24T00:52:44;96608.41;;;11.18;100.00
9139;BME280;4604;48.616;9.548;2022-09-24T00:55:13;96613.81;;;11.17;100.00
9139;BME280;4604;48.616;9.548;2022-09-24T00:57:41;96614.69;;;11.17;100.00
9139;BME280;4604;48.616;9.548;2022-09-24T01:00:10;96606.59;;;11.19;100.00
9139;BME280;4604;48.616;9.548;2022-09-24T01:02:38;96606.22;;;11.13;100.00
9139;BME280;4604;48.616;9.548;2022-09-24T01:05:08;96599.13;;;11.14;100.00
9139;BME280;4604;48.616;9.548;2022-09-24T01:07:35;96599.78;;;11.16;100.00
9139;BME280;4604;48.616;9.548;2022-09-24T01:10:02;96596.34;;;11.16;100.00
9139;BME280;4604;48.616;9.548;2022-09-24T01:12:39;96590.69;;;11.10;100.00
9139;BME280;4604;48.616;9.548;2022-09-24T01:15:16;96599.41;;;11.11;100.00
9139;BME280;4604;48.616;9.548;2022-09-24T01:17:51;96609.97;;;11.11;100.00
9139;BME280;4604;48.616;9.548;2022-09-24T01:20:35;96597.78;;;11.10;100.00
9139;BME280;4604;48.616;9.548;2022-09-24T01:23:19;96589.31;;;11.06;100.00
9139;BME280;4604;48.616;9.548;2022-09-24T01:25:56;96578.50;;;11.00;100.00
9139;BME280;4604;48.616;9.548;2022-09-24T01:28:43;96568.41;;;10.95;100.00
9139;BME280;4604;48.616;9.548;2022-09-24T01:31:22;96561.78;;;10.91;100.00
9139;BME280;4604;48.616;9.548;2022-09-24T01:33:56;96565.94;;;10.93;100.00
9139;BME280;4604;48.616;9.548;2022-09-24T01:36:26;96572.34;;;10.91;100.00
9139;BME280;4604;48.616;9.548;2022-09-24T01:38:54;96570.97;;;10.87;100.00
9139;BME280;4604;48.616;9.548;2022-09-24T01:41:23;96573.47;;;10.88;100.00
9139;BME280;4604;48.616;9.548;2022-09-24T01:43:50;96566.81;;;10.84;100.00
9139;BME280;4604;48.616;9.548;2022-09-24T01:46:19;96561.53;;;10.84;100.00
9139;BME280;4604;48.616;9.548;2022-09-24T01:48:48;96546.69;;;10.83;100.00
9139;BME280;4604;48.616;9.548;2022-09-24T01:51:19;96545.88;;;10.83;100.00
9139;BME280;4604;48.616;9.548;2022-09-24T01:53:50;96546.44;;;10.77;100.00
9139;BME280;4604;48.616;9.548;2022-09-24T01:56:24;96548.09;;;10.78;100.00
9139;BME280;4604;48.616;9.548;2022-09-24T01:58:57;96551.03;;;10.75;100.00
9139;BME280;4604;48.616;9.548;2022-09-24T02:01:30;96539.59;;;10.66;100.00
9139;BME280;4604;48.616;9.548;2022-09-24T02:04:03;96537.78;;;10.66;100.00
9139;BME280;4604;48.616;9.548;2022-09-24T02:06:33;96536.16;;;10.56;100.00
9139;BME280;4604;48.616;9.548;2022-09-24T02:09:03;96537.00;;;10.56;100.00
9139;BME280;4604;48.616;9.548;2022-09-24T02:11:31;96543.41;;;10.54;100.00
9139;BME280;4604;48.616;9.548;2022-09-24T02:14:03;96548.00;;;10.52;100.00
9139;BME280;4604;48.616;9.548;2022-09-24T02:16:35;96548.84;;;10.52;100.00
9139;BME280;4604;48.616;9.548;2022-09-24T02:19:05;96551.59;;;10.50;100.00
9139;BME280;4604;48.616;9.548;2022-09-24T02:21:35;96544.00;;;10.47;100.00
9139;BME280;4604;48.616;9.548;2022-09-24T02:24:07;96537.66;;;10.40;100.00
9139;BME280;4604;48.616;9.548;2022-09-24T02:26:36;96544.59;;;10.41;100.00
9139;BME280;4604;48.616;9.548;2022-09-24T02:29:03;96535.88;;;10.31;100.00
9139;BME280;4604;48.616;9.548;2022-09-24T02:31:33;96545.78;;;10.29;100.00
9139;BME280;4604;48.616;9.548;2022-09-24T02:34:06;96555.34;;;10.30;100.00
9139;BME280;4604;48.616;9.548;2022-09-24T02:36:47;96537.47;;;10.14;100.00
9139;BME280;4604;48.616;9.548;2022-09-24T02:39:14;96547.97;;;10.24;100.00
9139;BME280;4604;48.616;9.548;2022-09-24T02:41:41;96522.88;;;10.20;100.00
9139;BME280;4604;48.616;9.548;2022-09-24T02:44:11;96527.16;;;10.31;100.00
9139;BME280;4604;48.616;9.548;2022-09-24T02:46:40;96513.41;;;10.27;100.00
9139;BME280;4604;48.616;9.548;2022-09-24T02:49:07;96511.59;;;10.27;100.00
9139;BME280;4604;48.616;9.548;2022-09-24T02:51:34;96527.56;;;10.26;100.00
9139;BME280;4604;48.616;9.548;2022-09-24T02:54:01;96537.00;;;10.28;100.00
9139;BME280;4604;48.616;9.548;2022-09-24T02:56:28;96540.34;;;10.31;100.00
9139;BME280;4604;48.616;9.548;2022-09-24T02:58:55;96542.84;;;10.32;100.00
9139;BME280;4604;48.616;9.548;2022-09-24T03:01:22;96525.53;;;10.20;100.00
9139;BME280;4604;48.616;9.548;2022-09-24T03:03:51;96530.19;;;10.26;100.00
9139;BME280;4604;48.616;9.548;2022-09-24T03:06:17;96538.53;;;10.31;100.00
9139;BME280;4604;48.616;9.548;2022-09-24T03:08:45;96537.56;;;10.32;100.00
9139;BME280;4604;48.616;9.548;2022-09-24T03:11:12;96531.16;;;10.35;100.00
9139;BME280;4604;48.616;9.548;2022-09-24T03:13:39;96518.38;;;10.40;100.00
9139;BME280;4604;48.616;9.548;2022-09-24T03:16:06;96510.06;;;10.35;100.00
9139;BME280;4604;48.616;9.548;2022-09-24T03:18:34;96515.28;;;10.44;100.00
9139;BME280;4604;48.616;9.548;2022-09-24T03:21:04;96520.00;;;10.41;100.00
9139;BME280;4604;48.616;9.548;2022-09-24T03:23:33;96515.59;;;10.41;100.00
9139;BME280;4604;48.616;9.548;2022-09-24T03:26:01;96512.09;;;10.41;100.00
9139;BME280;4604;48.616;9.548;2022-09-24T03:28:28;96509.84;;;10.46;100.00
9139;BME280;4604;48.616;9.548;2022-09-24T03:30:55;96503.47;;;10.48;100.00
9139;BME280;4604;48.616;9.548;2022-09-24T03:33:24;96497.19;;;10.49;100.00
9139;BME280;4604;48.616;9.548;2022-09-24T03:35:54;96502.03;;;10.54;100.00
9139;BME280;4604;48.616;9.548;2022-09-24T03:38:22;96502.16;;;10.53;100.00
9139;BME280;4604;48.616;9.548;2022-09-24T03:40:50;96496.06;;;10.52;100.00
9139;BME280;4604;48.616;9.548;2022-09-24T03:43:17;96504.28;;;10.49;100.00
9139;BME280;4604;48.616;9.548;2022-09-24T03:45:44;96516.19;;;10.53;100.00
9139;BME280;4604;48.616;9.548;2022-09-24T03:48:10;96503.84;;;10.54;100.00
9139;BME280;4604;48.616;9.548;2022-09-24T03:50:37;96496.75;;;10.54;100.00
9139;BME280;4604;48.616;9.548;2022-09-24T03:53:04;96492.16;;;10.56;100.00
9139;BME280;4604;48.616;9.548;2022-09-24T03:55:32;96496.44;;;10.57;100.00
9139;BME280;4604;48.616;9.548;2022-09-24T03:57:59;96496.31;;;10.59;100.00
9139;BME280;4604;48.616;9.548;2022-09-24T04:00:26;96487.25;;;10.61;100.00
9139;BME280;4604;48.616;9.548;2022-09-24T04:02:53;96490.72;;;10.62;100.00
9139;BME280;4604;48.616;9.548;2022-09-24T04:05:19;96499.31;;;10.64;100.00
9139;BME280;4604;48.616;9.548;2022-09-24T04:07:46;96495.56;;;10.66;100.00
9139;BME280;4604;48.616;9.548;2022-09-24T04:10:13;96494.41;;;10.69;100.00
9139;BME280;4604;48.616;9.548;2022-09-24T04:12:41;96504.44;;;10.65;100.00
9139;BME280;4604;48.616;9.548;2022-09-24T04:15:10;96509.72;;;10.65;100.00
9139;BME280;4604;48.616;9.548;2022-09-24T04:17:38;96507.91;;;10.66;100.00
9139;BME280;4604;48.616;9.548;2022-09-24T04:20:05;96498.19;;;10.66;100.00
9139;BME280;4604;48.616;9.548;2022-09-24T04:22:33;96493.59;;;10.68;100.00
9139;BME280;4604;48.616;9.548;2022-09-24T04:25:00;96494.28;;;10.70;100.00
9139;BME280;4604;48.616;9.548;2022-09-24T04:27:28;96492.75;;;10.68;100.00
9139;BME280;4604;48.616;9.548;2022-09-24T04:29:56;96486.94;;;10.64;100.00
9139;BME280;4604;48.616;9.548;2022-09-24T04:32:23;96483.78;;;10.61;100.00
9139;BME280;4604;48.616;9.548;2022-09-24T04:34:50;96482.19;;;10.68;100.00
9139;BME280;4604;48.616;9.548;2022-09-24T04:37:17;96475.94;;;10.69;100.00
9139;BME280;4604;48.616;9.548;2022-09-24T04:39:43;96486.38;;;10.70;100.00
9139;BME280;4604;48.616;9.548;2022-09-24T04:42:15;96482.88;;;10.70;100.00
9139;BME280;4604;48.616;9.548;2022-09-24T04:44:41;96485.50;;;10.70;100.00
9139;BME280;4604;48.616;9.548;2022-09-24T04:47:13;96483.72;;;10.70;100.00
9139;BME280;4604;48.616;9.548;2022-09-24T04:49:40;96482.72;;;10.71;100.00
9139;BME280;4604;48.616;9.548;2022-09-24T04:52:10;96487.56;;;10.76;100.00
9139;BME280;4604;48.616;9.548;2022-09-24T04:54:39;96492.00;;;10.76;100.00
9139;BME280;4604;48.616;9.548;2022-09-24T04:57:06;96485.06;;;10.75;100.00
9139;BME280;4604;48.616;9.548;2022-09-24T04:59:33;96484.09;;;10.76;100.00
9139;BME280;4604;48.616;9.548;2022-09-24T05:02:06;96484.75;;;10.78;100.00
9139;BME280;4604;48.616;9.548;2022-09-24T05:04:34;96481.28;;;10.77;100.00
9139;BME280;4604;48.616;9.548;2022-09-24T05:07:03;96481.16;;;10.79;100.00
9139;BME280;4604;48.616;9.548;2022-09-24T05:09:30;96481.97;;;10.79;100.00
9139;BME280;4604;48.616;9.548;2022-09-24T05:11:57;96491.56;;;10.80;100.00
9139;BME280;4604;48.616;9.548;2022-09-24T05:14:24;96495.84;;;10.81;100.00
9139;BME280;4604;48.616;9.548;2022-09-24T05:16:51;96477.50;;;10.80;100.00
9139;BME280;4604;48.616;9.548;2022-09-24T05:19:18;96489.44;;;10.84;100.00
9139;BME280;4604;48.616;9.548;2022-09-24T05:21:46;96491.56;;;10.80;100.00
9139;BME280;4604;48.616;9.548;2022-09-24T05:24:13;96492.91;;;10.84;100.00
9139;BME280;4604;48.616;9.548;2022-09-24T05:26:40;96486.44;;;10.79;100.00
9139;BME280;4604;48.616;9.548;2022-09-24T05:29:24;96496.22;;;10.86;100.00
9139;BME280;4604;48.616;9.548;2022-09-24T05:31:51;96491.63;;;10.88;100.00
9139;BME280;4604;48.616;9.548;2022-09-24T05:34:18;96473.59;;;10.84;100.00
9139;BME280;4604;48.616;9.548;2022-09-24T05:36:46;96495.00;;;10.99;100.00
9139;BME280;4604;48.616;9.548;2022-09-24T05:39:12;96503.47;;;11.02;100.00
9139;BME280;4604;48.616;9.548;2022-09-24T05:41:39;96501.72;;;11.11;100.00
9139;BME280;4604;48.616;9.548;2022-09-24T05:44:07;96499.00;;;11.03;100.00
9139;BME280;4604;48.616;9.548;2022-09-24T05:46:35;96515.91;;;11.10;100.00
9139;BME280;4604;48.616;9.548;2022-09-24T05:49:04;96511.00;;;11.15;100.00
9139;BME280;4604;48.616;9.548;2022-09-24T05:51:30;96509.69;;;11.19;100.00
9139;BME280;4604;48.616;9.548;2022-09-24T05:53:58;96505.09;;;11.21;100.00
9139;BME280;4604;48.616;9.548;2022-09-24T05:56:25;96507.44;;;11.24;100.00
9139;BME280;4604;48.616;9.548;2022-09-24T05:58:52;96505.84;;;11.31;100.00
9139;BME280;4604;48.616;9.548;2022-09-24T06:01:19;96502.88;;;11.34;100.00
9139;BME280;4604;48.616;9.548;2022-09-24T06:03:45;96514.97;;;11.37;100.00
9139;BME280;4604;48.616;9.548;2022-09-24T06:06:13;96509.00;;;11.35;100.00
9139;BME280;4604;48.616;9.548;2022-09-24T06:08:39;96509.31;;;11.32;100.00
9139;BME280;4604;48.616;9.548;2022-09-24T06:11:07;96508.84;;;11.37;100.00
9139;BME280;4604;48.616;9.548;2022-09-24T06:13:35;96511.53;;;11.45;100.00
9139;BME280;4604;48.616;9.548;2022-09-24T06:16:02;96520.28;;;11.45;100.00
9139;BME280;4604;48.616;9.548;2022-09-24T06:18:32;96514.69;;;11.48;100.00
9139;BME280;4604;48.616;9.548;2022-09-24T06:21:06;96514.22;;;11.53;100.00
9139;BME280;4604;48.616;9.548;2022-09-24T06:23:33;96511.28;;;11.56;100.00
9139;BME280;4604;48.616;9.548;2022-09-24T06:26:05;96507.66;;;11.57;100.00
9139;BME280;4604;48.616;9.548;2022-09-24T06:28:33;96518.94;;;11.67;100.00
9139;BME280;4604;48.616;9.548;2022-09-24T06:31:03;96506.53;;;11.68;100.00
9139;BME280;4604;48.616;9.548;2022-09-24T06:33:30;96516.03;;;11.78;100.00
9139;BME280;4604;48.616;9.548;2022-09-24T06:35:59;96508.03;;;11.70;100.00
9139;BME280;4604;48.616;9.548;2022-09-24T06:38:27;96517.53;;;11.81;100.00
9139;BME280;4604;48.616;9.548;2022-09-24T06:40:58;96531.66;;;11.90;100.00
9139;BME280;4604;48.616;9.548;2022-09-24T06:43:25;96484.94;;;11.72;100.00
9139;BME280;4604;48.616;9.548;2022-09-24T06:45:55;96528.94;;;12.08;100.00
9139;BME280;4604;48.616;9.548;2022-09-24T06:48:22;96529.66;;;12.18;100.00
9139;BME280;4604;48.616;9.548;2022-09-24T06:50:49;96519.94;;;12.27;100.00
9139;BME280;4604;48.616;9.548;2022-09-24T06:53:16;96515.28;;;12.29;100.00
9139;BME280;4604;48.616;9.548;2022-09-24T06:55:43;96540.53;;;12.49;100.00
9139;BME280;4604;48.616;9.548;2022-09-24T06:58:11;96535.38;;;12.48;100.00
9139;BME280;4604;48.616;9.548;2022-09-24T07:00:39;96543.50;;;12.54;100.00
9139;BME280;4604;48.616;9.548;2022-09-24T07:03:13;96544.00;;;12.58;100.00
9139;BME280;4604;48.616;9.548;2022-09-24T07:05:43;96541.41;;;12.66;100.00
9139;BME280;4604;48.616;9.548;2022-09-24T07:08:09;96539.59;;;12.75;100.00
9139;BME280;4604;48.616;9.548;2022-09-24T07:10:36;96528.66;;;12.70;100.00
9139;BME280;4604;48.616;9.548;2022-09-24T07:13:06;96541.75;;;12.79;100.00
9139;BME280;4604;48.616;9.548;2022-09-24T07:15:33;96544.72;;;12.84;100.00
9139;BME280;4604;48.616;9.548;2022-09-24T07:18:01;96542.75;;;12.87;100.00
9139;BME280;4604;48.616;9.548;2022-09-24T07:20:29;96529.31;;;12.80;100.00
9139;BME280;4604;48.616;9.548;2022-09-24T07:22:57;96553.72;;;13.00;100.00
9139;BME280;4604;48.616;9.548;2022-09-24T07:25:24;96557.69;;;13.04;100.00
9139;BME280;4604;48.616;9.548;2022-09-24T07:27:51;96568.78;;;13.07;100.00
9139;BME280;4604;48.616;9.548;2022-09-24T07:30:18;96547.41;;;13.09;100.00
9139;BME280;4604;48.616;9.548;2022-09-24T07:32:44;96520.94;;;12.93;100.00
9139;BME280;4604;48.616;9.548;2022-09-24T07:35:12;96563.47;;;13.24;100.00
9139;BME280;4604;48.616;9.548;2022-09-24T07:37:41;96569.00;;;13.31;100.00
9139;BME280;4604;48.616;9.548;2022-09-24T07:40:08;96568.16;;;13.38;100.00
9139;BME280;4604;48.616;9.548;2022-09-24T07:42:34;96563.19;;;13.43;100.00
9139;BME280;4604;48.616;9.548;2022-09-24T07:45:04;96569.16;;;13.45;100.00
9139;BME280;4604;48.616;9.548;2022-09-24T07:47:30;96573.81;;;13.52;100.00
9139;BME280;4604;48.616;9.548;2022-09-24T07:49:58;96569.66;;;13.57;100.00
9139;BME280;4604;48.616;9.548;2022-09-24T07:52:25;96576.97;;;13.63;100.00
9139;BME280;4604;48.616;9.548;2022-09-24T07:54:53;96574.63;;;13.68;100.00
9139;BME280;4604;48.616;9.548;2022-09-24T07:57:19;96538.00;;;13.47;100.00
9139;BME280;4604;48.616;9.548;2022-09-24T07:59:46;96571.47;;;13.81;100.00
9139;BME280;4604;48.616;9.548;2022-09-24T08:02:16;96579.06;;;13.84;100.00
9139;BME280;4604;48.616;9.548;2022-09-24T08:04:43;96585.03;;;13.86;100.00
9139;BME280;4604;48.616;9.548;2022-09-24T08:07:10;96581.22;;;13.89;100.00
9139;BME280;4604;48.616;9.548;2022-09-24T08:09:37;96575.56;;;13.92;100.00
9139;BME280;4604;48.616;9.548;2022-09-24T08:12:05;96585.38;;;14.00;100.00
9139;BME280;4604;48.616;9.548;2022-09-24T08:14:33;96587.50;;;14.04;100.00
9139;BME280;4604;48.616;9.548;2022-09-24T08:17:00;96588.34;;;14.05;100.00
9139;BME280;4604;48.616;9.548;2022-09-24T08:19:27;96589.13;;;14.13;100.00
9139;BME280;4604;48.616;9.548;2022-09-24T08:21:55;96593.63;;;14.13;100.00
9139;BME280;4604;48.616;9.548;2022-09-24T08:24:22;96593.47;;;14.06;100.00
9139;BME280;4604;48.616;9.548;2022-09-24T08:26:48;96591.00;;;14.05;100.00
9139;BME280;4604;48.616;9.548;2022-09-24T08:29:16;96594.78;;;14.10;100.00
9139;BME280;4604;48.616;9.548;2022-09-24T08:31:43;96596.94;;;14.15;100.00
9139;BME280;4604;48.616;9.548;2022-09-24T08:34:10;96598.44;;;14.09;100.00
9139;BME280;4604;48.616;9.548;2022-09-24T08:36:37;96598.25;;;14.11;100.00
9139;BME280;4604;48.616;9.548;2022-09-24T08:39:04;96600.75;;;14.12;100.00
9139;BME280;4604;48.616;9.548;2022-09-24T08:41:51;96602.72;;;14.19;100.00
9139;BME280;4604;48.616;9.548;2022-09-24T08:44:26;96598.41;;;14.18;100.00
9139;BME280;4604;48.616;9.548;2022-09-24T08:47:16;96599.88;;;14.28;100.00
9139;BME280;4604;48.616;9.548;2022-09-24T08:49:57;96607.31;;;14.33;100.00
9139;BME280;4604;48.616;9.548;2022-09-24T08:52:37;96603.34;;;14.37;100.00
9139;BME280;4604;48.616;9.548;2022-09-24T08:55:09;96602.47;;;14.45;100.00
9139;BME280;4604;48.616;9.548;2022-09-24T08:57:47;96596.19;;;14.54;100.00
9139;BME280;4604;48.616;9.548;2022-09-24T09:00:16;96599.63;;;14.63;100.00
9139;BME280;4604;48.616;9.548;2022-09-24T09:02:50;96598.28;;;14.67;100.00
9139;BME280;4604;48.616;9.548;2022-09-24T09:05:22;96598.13;;;14.60;100.00
9139;BME280;4604;48.616;9.548;2022-09-24T09:07:59;96614.72;;;14.62;100.00
9139;BME280;4604;48.616;9.548;2022-09-24T09:10:31;96612.06;;;14.70;100.00
9139;BME280;4604;48.616;9.548;2022-09-24T09:13:05;96604.41;;;14.75;100.00
9139;BME280;4604;48.616;9.548;2022-09-24T09:15:39;96599.69;;;14.86;100.00
9139;BME280;4604;48.616;9.548;2022-09-24T09:18:13;96610.78;;;14.89;100.00
9139;BME280;4604;48.616;9.548;2022-09-24T09:20:43;96609.09;;;14.96;100.00
9139;BME280;4604;48.616;9.548;2022-09-24T09:23:13;96602.88;;;14.81;100.00
9139;BME280;4604;48.616;9.548;2022-09-24T09:25:45;96595.56;;;14.83;100.00
9139;BME280;4604;48.616;9.548;2022-09-24T09:28:15;96602.78;;;14.97;100.00
9139;BME280;4604;48.616;9.548;2022-09-24T09:30:55;96603.38;;;15.08;100.00
9139;BME280;4604;48.616;9.548;2022-09-24T09:33:37;96605.00;;;15.17;100.00
9139;BME280;4604;48.616;9.548;2022-09-24T09:36:30;96603.63;;;15.21;100.00
9139;BME280;4604;48.616;9.548;2022-09-24T09:39:04;96607.72;;;15.32;100.00
9139;BME280;4604;48.616;9.548;2022-09-24T09:41:40;96611.56;;;15.29;100.00
9139;BME280;4604;48.616;9.548;2022-09-24T09:44:15;96615.78;;;15.38;100.00
9139;BME280;4604;48.616;9.548;2022-09-24T09:46:50;96608.16;;;15.44;100.00
9139;BME280;4604;48.616;9.548;2022-09-24T09:49:20;96610.31;;;15.40;100.00
9139;BME280;4604;48.616;9.548;2022-09-24T09:51:48;96609.88;;;15.28;100.00
9139;BME280;4604;48.616;9.548;2022-09-24T09:54:17;96606.69;;;15.33;100.00
9139;BME280;4604;48.616;9.548;2022-09-24T09:56:46;96615.28;;;15.43;100.00
9139;BME280;4604;48.616;9.548;2022-09-24T09:59:19;96605.94;;;15.47;100.00
9139;BME280;4604;48.616;9.548;2022-09-24T10:01:49;96609.41;;;15.48;100.00
9139;BME280;4604;48.616;9.548;2022-09-24T10:04:27;96601.94;;;15.51;100.00
9139;BME280;4604;48.616;9.548;2022-09-24T10:07:07;96597.56;;;15.58;100.00
9139;BME280;4604;48.616;9.548;2022-09-24T10:09:35;96599.31;;;15.66;100.00
9139;BME280;4604;48.616;9.548;2022-09-24T10:12:07;96597.03;;;15.63;100.00
9139;BME280;4604;48.616;9.548;2022-09-24T10:14:34;96600.97;;;15.67;100.00
9139;BME280;4604;48.616;9.548;2022-09-24T10:17:02;96603.63;;;15.67;100.00
9139;BME280;4604;48.616;9.548;2022-09-24T10:19:33;96604.13;;;15.71;100.00
9139;BME280;4604;48.616;9.548;2022-09-24T10:22:07;96599.47;;;15.73;100.00
9139;BME280;4604;48.616;9.548;2022-09-24T10:24:36;96603.94;;;15.72;100.00
9139;BME280;4604;48.616;9.548;2022-09-24T10:27:18;96604.13;;;15.71;100.00
9139;BME280;4604;48.616;9.548;2022-09-24T10:29:51;96597.56;;;15.58;100.00
9139;BME280;4604;48.616;9.548;2022-09-24T10:32:38;96582.88;;;15.62;100.00
9139;BME280;4604;48.616;9.548;2022-09-24T10:35:19;96592.09;;;15.75;100.00
9139;BME280;4604;48.616;9.548;2022-09-24T10:37:49;96586.84;;;15.67;100.00
9139;BME280;4604;48.616;9.548;2022-09-24T10:40:20;96604.50;;;15.59;100.00
9139;BME280;4604;48.616;9.548;2022-09-24T10:42:54;96595.34;;;15.62;100.00
9139;BME280;4604;48.616;9.548;2022-09-24T10:48:15;96604.75;;;15.50;100.00
9139;BME280;4604;48.616;9.548;2022-09-24T10:50:48;96602.09;;;15.50;100.00
9139;BME280;4604;48.616;9.548;2022-09-24T10:53:29;96604.59;;;15.51;100.00
9139;BME280;4604;48.616;9.548;2022-09-24T10:56:09;96600.38;;;15.57;100.00
9139;BME280;4604;48.616;9.548;2022-09-24T11:01:43;96596.53;;;15.59;100.00
9139;BME280;4604;48.616;9.548;2022-09-24T11:04:24;96598.81;;;15.62;100.00
9139;BME280;4604;48.616;9.548;2022-09-24T11:07:17;96597.63;;;15.73;100.00
9139;BME280;4604;48.616;9.548;2022-09-24T11:09:52;96584.97;;;15.75;100.00
9139;BME280;4604;48.616;9.548;2022-09-24T11:12:28;96596.63;;;15.89;100.00
9139;BME280;4604;48.616;9.548;2022-09-24T11:15:11;96602.19;;;16.02;100.00
9139;BME280;4604;48.616;9.548;2022-09-24T11:17:49;96583.81;;;16.08;100.00
9139;BME280;4604;48.616;9.548;2022-09-24T11:20:26;96586.13;;;16.25;100.00
9139;BME280;4604;48.616;9.548;2022-09-24T11:23:16;96586.31;;;16.39;100.00
9139;BME280;4604;48.616;9.548;2022-09-24T11:25:54;96589.25;;;16.59;100.00
9139;BME280;4604;48.616;9.548;2022-09-24T11:28:38;96576.03;;;16.65;99.18
9139;BME280;4604;48.616;9.548;2022-09-24T11:31:19;96592.34;;;16.77;98.49
9139;BME280;4604;48.616;9.548;2022-09-24T11:34:12;96587.28;;;16.82;97.38
9139;BME280;4604;48.616;9.548;2022-09-24T11:36:57;96594.72;;;16.87;96.99
9139;BME280;4604;48.616;9.548;2022-09-24T11:39:39;96598.50;;;16.93;97.09
9139;BME280;4604;48.616;9.548;2022-09-24T11:42:16;96593.25;;;16.99;97.82
9139;BME280;4604;48.616;9.548;2022-09-24T11:45:20;96595.22;;;16.90;94.89
9139;BME280;4604;48.616;9.548;2022-09-24T11:48:09;96600.44;;;16.84;94.00
9139;BME280;4604;48.616;9.548;2022-09-24T11:50:52;96583.00;;;16.81;93.54
9139;BME280;4604;48.616;9.548;2022-09-24T11:53:31;96575.25;;;16.86;93.63
9139;BME280;4604;48.616;9.548;2022-09-24T11:56:03;96580.94;;;16.98;94.29
9139;BME280;4604;48.616;9.548;2022-09-24T11:58:33;96576.00;;;16.95;90.20
9139;BME280;4604;48.616;9.548;2022-09-24T12:01:04;96568.50;;;17.05;89.81
9139;BME280;4604;48.616;9.548;2022-09-24T12:03:41;96581.97;;;16.97;88.08
9139;BME280;4604;48.616;9.548;2022-09-24T12:06:10;96571.00;;;16.92;87.91
9139;BME280;4604;48.616;9.548;2022-09-24T12:08:45;96569.25;;;16.99;89.04
9139;BME280;4604;48.616;9.548;2022-09-24T12:11:17;96541.00;;;16.83;89.80
9139;BME280;4604;48.616;9.548;2022-09-24T12:13:47;96563.72;;;17.01;91.42
9139;BME280;4604;48.616;9.548;2022-09-24T12:16:18;96560.81;;;16.96;90.42
9139;BME280;4604;48.616;9.548;2022-09-24T12:18:52;96563.47;;;16.96;89.86
9139;BME280;4604;48.616;9.548;2022-09-24T12:21:25;96556.84;;;16.92;89.30
9139;BME280;4604;48.616;9.548;2022-09-24T12:23:56;96555.41;;;16.89;88.61
9139;BME280;4604;48.616;9.548;2022-09-24T12:26:28;96558.53;;;16.93;88.38
9139;BME280;4604;48.616;9.548;2022-09-24T12:28:59;96550.72;;;16.91;89.02
9139;BME280;4604;48.616;9.548;2022-09-24T12:31:51;96544.34;;;16.92;90.01
9139;BME280;4604;48.616;9.548;2022-09-24T12:34:43;96531.25;;;17.12;89.18
9139;BME280;4604;48.616;9.548;2022-09-24T12:37:15;96543.16;;;17.16;89.43
9139;BME280;4604;48.616;9.548;2022-09-24T12:39:51;96535.88;;;17.25;89.94
9139;BME280;4604;48.616;9.548;2022-09-24T12:42:21;96539.81;;;17.29;90.18
9139;BME280;4604;48.616;9.548;2022-09-24T12:44:53;96533.72;;;17.35;89.97
9139;BME280;4604;48.616;9.548;2022-09-24T12:47:23;96532.06;;;17.34;89.20
9139;BME280;4604;48.616;9.548;2022-09-24T12:49:53;96535.81;;;17.18;87.83
9139;BME280;4604;48.616;9.548;2022-09-24T12:52:27;96537.00;;;17.16;88.49
9139;BME280;4604;48.616;9.548;2022-09-24T12:55:00;96530.72;;;17.23;87.45
9139;BME280;4604;48.616;9.548;2022-09-24T12:57:31;96530.34;;;17.26;87.58
9139;BME280;4604;48.616;9.548;2022-09-24T13:00:02;96526.22;;;17.24;89.02
9139;BME280;4604;48.616;9.548;2022-09-24T13:02:42;96530.03;;;17.15;86.67
9139;BME280;4604;48.616;9.548;2022-09-24T13:05:25;96523.94;;;17.21;85.93
9139;BME280;4604;48.616;9.548;2022-09-24T13:07:58;96525.03;;;17.05;85.91
9139;BME280;4604;48.616;9.548;2022-09-24T13:10:28;96522.88;;;17.15;85.87
9139;BME280;4604;48.616;9.548;2022-09-24T13:12:56;96525.97;;;16.97;86.38
9139;BME280;4604;48.616;9.548;2022-09-24T13:15:32;96517.25;;;16.88;87.50
9139;BME280;4604;48.616;9.548;2022-09-24T13:18:01;96524.88;;;16.92;88.34
9139;BME280;4604;48.616;9.548;2022-09-24T13:20:30;96514.22;;;16.92;87.88
9139;BME280;4604;48.616;9.548;2022-09-24T13:22:59;96508.19;;;16.83;88.14
9139;BME280;4604;48.616;9.548;2022-09-24T13:25:37;96523.78;;;16.86;89.02
9139;BME280;4604;48.616;9.548;2022-09-24T13:28:19;96528.03;;;16.80;89.30
9139;BME280;4604;48.616;9.548;2022-09-24T13:30:49;96520.66;;;16.67;89.06
9139;BME280;4604;48.616;9.548;2022-09-24T13:33:21;96516.41;;;16.52;88.91
9139;BME280;4604;48.616;9.548;2022-09-24T13:36:01;96523.03;;;16.56;90.17
9139;BME280;4604;48.616;9.548;2022-09-24T13:38:32;96525.59;;;16.49;91.03